createdAt,value
2018-02-22T00:01:38.723Z,18.60
2018-02-22T00:04:05.331Z,18.10
2018-02-22T00:06:31.947Z,19.13
2018-02-22T00:08:58.560Z,18.37
2018-02-22T00:11:25.150Z,18.57
2018-02-22T00:13:51.752Z,19.63
2018-02-22T00:16:18.355Z,19.50
2018-02-22T00:18:44.947Z,19.60
2018-02-22T00:21:11.646Z,20.87
2018-02-22T00:23:38.236Z,19.43
2018-02-22T00:26:04.864Z,19.90
2018-02-22T00:28:31.471Z,19.97
2018-02-22T00:30:58.070Z,20.17
2018-02-22T00:33:24.772Z,19.77
2018-02-22T00:35:51.359Z,19.63
2018-02-22T00:38:17.955Z,19.97
2018-02-22T00:40:44.564Z,19.80
2018-02-22T00:43:11.159Z,19.43
2018-02-22T00:45:37.771Z,20.13
2018-02-22T00:48:04.376Z,19.37
2018-02-22T00:50:31.004Z,19.23
2018-02-22T00:52:57.579Z,18.43
2018-02-22T00:55:24.194Z,18.87
2018-02-22T00:57:50.868Z,19.67
2018-02-22T01:00:17.451Z,17.93
2018-02-22T01:02:44.044Z,17.83
2018-02-22T01:05:10.656Z,18.23
2018-02-22T01:07:37.255Z,18.20
2018-02-22T01:10:03.868Z,18.20
2018-02-22T01:12:30.463Z,17.27
2018-02-22T01:14:57.062Z,17.57
2018-02-22T01:17:23.672Z,19.00
2018-02-22T01:19:50.272Z,18.23
2018-02-22T01:22:16.887Z,17.63
2018-02-22T01:24:43.487Z,19.47
2018-02-22T01:27:10.087Z,18.00
2018-02-22T01:29:36.687Z,18.30
2018-02-22T01:32:03.283Z,16.90
2018-02-22T01:34:29.900Z,18.37
2018-02-22T01:36:56.499Z,17.60
2018-02-22T01:39:23.095Z,18.50
2018-02-22T01:41:49.708Z,18.37
2018-02-22T01:44:16.304Z,17.83
2018-02-22T01:46:42.911Z,17.27
2018-02-22T01:49:09.516Z,17.53
2018-02-22T01:51:38.120Z,18.57
2018-02-22T01:54:04.731Z,17.73
2018-02-22T01:56:31.331Z,18.60
2018-02-22T01:58:57.939Z,17.73
2018-02-22T02:01:24.540Z,18.03
2018-02-22T02:03:51.140Z,16.70
2018-02-22T02:06:17.751Z,17.10
2018-02-22T02:08:44.351Z,16.93
2018-02-22T02:11:10.947Z,17.03
2018-02-22T02:13:37.551Z,17.83
2018-02-22T02:16:04.147Z,16.90
2018-02-22T02:18:30.756Z,17.87
2018-02-22T02:20:57.356Z,17.20
2018-02-22T02:23:23.960Z,17.73
2018-02-22T02:25:50.555Z,16.50
2018-02-22T02:28:17.168Z,16.60
2018-02-22T02:30:43.785Z,17.87
2018-02-22T02:33:10.379Z,16.20
2018-02-22T02:35:36.975Z,15.80
2018-02-22T02:38:03.583Z,17.27
2018-02-22T02:40:30.177Z,17.40
2018-02-22T02:42:56.785Z,16.70
2018-02-22T02:45:23.389Z,16.73
2018-02-22T02:47:50.004Z,16.47
2018-02-22T02:50:16.608Z,16.60
2018-02-22T02:52:43.199Z,16.87
2018-02-22T02:55:09.816Z,15.80
2018-02-22T02:57:36.416Z,16.53
2018-02-22T03:00:03.017Z,17.77
2018-02-22T03:02:29.644Z,16.50
2018-02-22T03:04:56.272Z,16.77
2018-02-22T03:07:22.884Z,17.07
2018-02-22T03:09:49.472Z,16.60
2018-02-22T03:12:16.071Z,16.20
2018-02-22T03:14:42.676Z,16.43
2018-02-22T03:17:09.275Z,15.90
2018-02-22T03:19:35.892Z,15.43
2018-02-22T03:22:02.489Z,16.40
2018-02-22T03:24:29.083Z,16.57
2018-02-22T03:26:55.687Z,15.37
2018-02-22T03:29:22.284Z,15.83
2018-02-22T03:31:48.900Z,15.67
2018-02-22T03:34:15.500Z,15.30
2018-02-22T03:36:42.100Z,14.13
2018-02-22T03:39:08.708Z,15.83
2018-02-22T03:41:35.307Z,15.40
2018-02-22T03:44:01.930Z,15.73
2018-02-22T03:46:28.519Z,15.60
2018-02-22T03:48:55.120Z,15.10
2018-02-22T03:51:21.726Z,15.93
2018-02-22T03:53:48.323Z,15.23
2018-02-22T03:56:14.931Z,15.10
2018-02-22T03:58:41.546Z,14.77
2018-02-22T04:01:08.136Z,15.47
2018-02-22T04:03:34.730Z,15.27
2018-02-22T04:06:01.332Z,15.20
2018-02-22T04:08:27.943Z,14.73
2018-02-22T04:10:54.540Z,14.57
2018-02-22T04:13:21.164Z,15.27
2018-02-22T04:15:47.804Z,14.73
2018-02-22T04:18:14.423Z,14.73
2018-02-22T04:20:41.028Z,15.13
2018-02-22T04:23:07.627Z,15.00
2018-02-22T04:25:34.223Z,14.90
2018-02-22T04:28:00.828Z,15.03
2018-02-22T04:30:27.423Z,15.23
2018-02-22T04:32:54.052Z,15.30
2018-02-22T04:35:20.653Z,15.13
2018-02-22T04:37:47.252Z,14.60
2018-02-22T04:40:13.859Z,15.40
2018-02-22T04:42:40.452Z,14.00
2018-02-22T04:45:07.043Z,13.70
2018-02-22T04:47:33.652Z,14.27
2018-02-22T04:50:00.243Z,14.30
2018-02-22T04:52:26.850Z,14.80
2018-02-22T04:54:53.444Z,13.97
2018-02-22T04:57:20.064Z,13.80
2018-02-22T04:59:46.659Z,14.63
2018-02-22T05:02:13.261Z,14.13
2018-02-22T05:04:39.868Z,13.30
2018-02-22T05:07:06.468Z,14.40
2018-02-22T05:09:33.096Z,13.60
2018-02-22T05:11:59.687Z,13.63
2018-02-22T05:14:26.335Z,13.37
2018-02-22T05:16:52.946Z,12.57
2018-02-22T05:19:19.552Z,12.70
2018-02-22T05:21:46.164Z,12.47
2018-02-22T05:24:12.759Z,12.93
2018-02-22T05:26:39.355Z,12.00
2018-02-22T05:29:05.963Z,12.60
2018-02-22T05:31:32.564Z,11.73
2018-02-22T05:33:59.184Z,11.40
2018-02-22T05:36:25.770Z,11.60
2018-02-22T05:38:52.384Z,11.70
2018-02-22T05:41:18.981Z,11.80
2018-02-22T05:43:45.594Z,11.80
2018-02-22T05:46:12.196Z,11.90
2018-02-22T05:48:38.795Z,12.00
2018-02-22T05:51:05.392Z,10.87
2018-02-22T05:53:31.997Z,12.13
2018-02-22T05:55:58.587Z,11.53
2018-02-22T05:58:25.403Z,11.63
2018-02-22T06:00:51.991Z,10.70
2018-02-22T06:03:19.468Z,11.10
2018-02-22T06:05:46.072Z,11.30
2018-02-22T06:08:12.667Z,11.33
2018-02-22T06:10:39.284Z,10.57
2018-02-22T06:13:05.883Z,10.60
2018-02-22T06:15:32.485Z,11.57
2018-02-22T06:17:59.084Z,12.07
2018-02-22T06:20:25.723Z,11.90
2018-02-22T06:22:52.363Z,12.47
2018-02-22T06:25:18.979Z,12.23
2018-02-22T06:27:45.582Z,12.80
2018-02-22T06:30:12.192Z,11.67
2018-02-22T06:32:38.796Z,11.67
2018-02-22T06:35:05.404Z,11.47
2018-02-22T06:37:31.999Z,11.23
2018-02-22T06:39:58.644Z,11.03
2018-02-22T06:42:25.248Z,10.83
2018-02-22T06:44:51.844Z,11.23
2018-02-22T06:47:18.455Z,10.53
2018-02-22T06:49:45.060Z,11.53
2018-02-22T06:52:11.659Z,10.60
2018-02-22T06:54:38.296Z,11.40
2018-02-22T06:57:04.912Z,12.37
2018-02-22T06:59:31.520Z,11.30
2018-02-22T07:01:58.119Z,11.30
2018-02-22T07:04:24.715Z,10.93
2018-02-22T07:06:52.288Z,11.03
2018-02-22T07:09:19.708Z,10.23
2018-02-22T07:11:46.321Z,10.97
2018-02-22T07:14:12.919Z,10.00
2018-02-22T07:16:39.556Z,11.03
2018-02-22T07:19:06.168Z,10.03
2018-02-22T07:21:32.767Z,11.00
2018-02-22T07:23:59.360Z,10.43
2018-02-22T07:26:25.968Z,10.30
2018-02-22T07:28:52.567Z,10.33
2018-02-22T07:31:19.164Z,9.60
2018-02-22T07:33:45.763Z,10.27
2018-02-22T07:36:12.371Z,10.00
2018-02-22T07:38:38.981Z,8.90
2018-02-22T07:41:05.571Z,9.40
2018-02-22T07:43:32.185Z,9.30
2018-02-22T07:45:58.788Z,10.10
2018-02-22T07:48:25.376Z,9.60
2018-02-22T07:50:52.001Z,9.57
2018-02-22T07:53:18.574Z,9.90
2018-02-22T07:55:45.206Z,9.37
2018-02-22T07:58:11.792Z,10.13
2018-02-22T08:00:38.383Z,9.30
2018-02-22T08:03:04.980Z,9.60
2018-02-22T08:05:31.586Z,9.27
2018-02-22T08:07:58.189Z,9.93
2018-02-22T08:10:24.784Z,9.27
2018-02-22T08:12:51.375Z,9.23
2018-02-22T08:15:18.020Z,9.27
2018-02-22T08:17:44.623Z,9.20
2018-02-22T08:20:11.695Z,9.70
2018-02-22T08:22:39.251Z,9.33
2018-02-22T08:25:05.864Z,9.50
2018-02-22T08:27:32.460Z,9.43
2018-02-22T08:29:59.054Z,9.40
2018-02-22T08:32:25.677Z,8.97
2018-02-22T08:34:52.335Z,8.93
2018-02-22T08:37:18.931Z,9.60
2018-02-22T08:39:45.540Z,9.60
2018-02-22T08:42:12.132Z,8.30
2018-02-22T08:44:38.749Z,8.97
2018-02-22T08:47:05.336Z,8.70
2018-02-22T08:49:31.927Z,9.57
2018-02-22T08:51:58.592Z,9.77
2018-02-22T08:54:25.156Z,8.10
2018-02-22T08:56:51.775Z,8.57
2018-02-22T08:59:18.366Z,9.27
2018-02-22T09:01:44.956Z,9.10
2018-02-22T09:04:11.555Z,8.73
2018-02-22T09:06:38.147Z,8.83
2018-02-22T09:09:04.755Z,8.50
2018-02-22T09:11:31.352Z,9.20
2018-02-22T09:13:57.947Z,8.27
2018-02-22T09:16:24.551Z,8.73
2018-02-22T09:18:51.140Z,9.07
2018-02-22T09:21:17.756Z,9.50
2018-02-22T09:23:44.348Z,8.00
2018-02-22T09:26:10.945Z,9.13
2018-02-22T09:28:37.548Z,9.10
2018-02-22T09:31:04.147Z,9.20
2018-02-22T09:33:30.767Z,9.47
2018-02-22T09:35:57.351Z,8.30
2018-02-22T09:38:23.952Z,8.67
2018-02-22T09:40:50.554Z,8.30
2018-02-22T09:43:17.152Z,8.00
2018-02-22T09:45:43.765Z,8.70
2018-02-22T09:48:10.354Z,7.77
2018-02-22T09:50:36.944Z,8.30
2018-02-22T09:53:03.543Z,7.93
2018-02-22T09:55:30.136Z,8.47
2018-02-22T09:57:56.756Z,7.60
2018-02-22T10:00:23.350Z,8.50
2018-02-22T10:02:49.948Z,8.93
2018-02-22T10:05:16.560Z,7.87
2018-02-22T10:07:43.159Z,7.90
2018-02-22T10:10:09.755Z,8.67
2018-02-22T10:12:36.379Z,7.83
2018-02-22T10:15:02.975Z,7.90
2018-02-22T10:17:29.559Z,8.57
2018-02-22T10:19:56.160Z,8.37
2018-02-22T10:22:22.756Z,8.40
2018-02-22T10:24:49.384Z,7.60
2018-02-22T10:27:15.992Z,7.70
2018-02-22T10:29:42.579Z,7.20
2018-02-22T10:32:09.191Z,7.33
2018-02-22T10:34:35.775Z,8.47
2018-02-22T10:37:02.376Z,8.10
2018-02-22T10:39:28.972Z,8.80
2018-02-22T10:41:55.591Z,8.37
2018-02-22T10:44:22.188Z,8.07
2018-02-22T10:46:48.779Z,7.87
2018-02-22T10:49:15.387Z,7.23
2018-02-22T10:51:41.974Z,8.17
2018-02-22T10:54:08.586Z,8.17
2018-02-22T10:56:35.171Z,8.17
2018-02-22T10:59:01.769Z,7.67
2018-02-22T11:01:34.124Z,7.67
2018-02-22T11:04:00.719Z,8.60
2018-02-22T11:06:27.320Z,8.20
2018-02-22T11:08:53.907Z,8.47
2018-02-22T11:11:20.524Z,8.20
2018-02-22T11:13:47.121Z,8.17
2018-02-22T11:16:13.714Z,8.30
2018-02-22T11:18:40.354Z,7.30
2018-02-22T11:21:06.914Z,6.83
2018-02-22T11:23:33.523Z,6.20
2018-02-22T11:26:00.120Z,6.70
2018-02-22T11:28:26.703Z,6.80
2018-02-22T11:30:53.307Z,7.60
2018-02-22T11:33:19.909Z,7.13
2018-02-22T11:35:46.519Z,7.10
2018-02-22T11:38:13.102Z,6.97
2018-02-22T11:40:39.706Z,6.97
2018-02-22T11:43:06.309Z,6.60
2018-02-22T11:45:32.900Z,6.90
2018-02-22T11:47:59.507Z,7.10
2018-02-22T11:50:26.098Z,6.77
2018-02-22T11:52:52.691Z,6.27
2018-02-22T11:55:19.305Z,6.27
2018-02-22T11:57:45.888Z,7.20
2018-02-22T12:00:12.508Z,6.17
2018-02-22T12:02:39.095Z,6.43
2018-02-22T12:05:05.687Z,6.97
2018-02-22T12:07:32.280Z,6.50
2018-02-22T12:09:58.871Z,6.13
2018-02-22T12:12:25.479Z,6.03
2018-02-22T12:14:52.081Z,6.40
2018-02-22T12:17:18.677Z,5.60
2018-02-22T12:19:45.271Z,6.60
2018-02-22T12:22:11.860Z,6.30
2018-02-22T12:24:38.460Z,6.10
2018-02-22T12:27:05.044Z,6.10
2018-02-22T12:29:31.648Z,6.20
2018-02-22T12:31:58.239Z,6.20
2018-02-22T12:34:24.832Z,6.30
2018-02-22T12:36:51.435Z,5.23
2018-02-22T12:39:18.027Z,6.13
2018-02-22T12:41:44.628Z,6.10
2018-02-22T12:44:11.224Z,6.20
2018-02-22T12:46:37.811Z,5.63
2018-02-22T12:49:04.415Z,6.10
2018-02-22T12:51:31.065Z,6.10
2018-02-22T12:53:57.640Z,6.27
2018-02-22T12:56:24.251Z,4.93
2018-02-22T12:58:50.852Z,5.83
2018-02-22T13:01:17.444Z,5.47
2018-02-22T13:03:44.051Z,5.67
2018-02-22T13:06:10.639Z,5.50
2018-02-22T13:08:37.234Z,5.30
2018-02-22T13:11:03.832Z,5.77
2018-02-22T13:13:30.417Z,5.90
2018-02-22T13:15:57.011Z,5.37
2018-02-22T13:18:23.641Z,6.20
2018-02-22T13:20:50.216Z,5.40
2018-02-22T13:23:16.812Z,5.77
2018-02-22T13:25:43.416Z,6.23
2018-02-22T13:28:10.012Z,7.07
2018-02-22T13:30:36.605Z,5.80
2018-02-22T13:33:09.094Z,6.47
2018-02-22T13:35:35.676Z,5.93
2018-02-22T13:38:09.093Z,6.03
2018-02-22T13:40:35.675Z,5.80
2018-02-22T13:43:02.268Z,6.53
2018-02-22T13:45:32.572Z,6.70
2018-02-22T13:47:59.160Z,6.10
2018-02-22T13:50:31.616Z,6.53
2018-02-22T13:52:58.216Z,6.83
2018-02-22T13:55:24.807Z,6.77
2018-02-22T13:57:51.424Z,6.13
2018-02-22T14:00:23.883Z,6.57
2018-02-22T14:02:50.484Z,7.03
2018-02-22T14:05:17.088Z,7.13
2018-02-22T14:07:43.679Z,6.90
2018-02-22T14:10:10.280Z,6.50
2018-02-22T14:12:36.867Z,6.50
2018-02-22T14:15:03.455Z,6.37
2018-02-22T14:17:30.070Z,7.33
2018-02-22T14:19:56.656Z,6.83
2018-02-22T14:22:23.252Z,7.87
2018-02-22T14:24:49.860Z,7.27
2018-02-22T14:27:16.456Z,7.30
2018-02-22T14:29:43.060Z,6.90
2018-02-22T14:32:09.677Z,7.27
2018-02-22T14:34:36.262Z,7.20
2018-02-22T14:37:02.865Z,7.73
2018-02-22T14:39:29.472Z,7.00
2018-02-22T14:41:56.064Z,7.07
2018-02-22T14:44:22.656Z,7.60
2018-02-22T14:46:49.284Z,7.20
2018-02-22T14:49:15.879Z,7.60
2018-02-22T14:51:42.468Z,8.47
2018-02-22T14:54:09.085Z,8.07
2018-02-22T14:56:35.668Z,7.30
2018-02-22T14:59:02.256Z,7.33
2018-02-22T15:01:28.871Z,7.20
2018-02-22T15:03:55.475Z,6.83
2018-02-22T15:06:22.074Z,7.40
2018-02-22T15:08:48.691Z,7.17
2018-02-22T15:11:15.280Z,6.80
2018-02-22T15:13:41.918Z,7.17
2018-02-22T15:16:08.490Z,7.77
2018-02-22T15:18:35.088Z,7.70
2018-02-22T15:21:01.692Z,7.30
2018-02-22T15:23:28.291Z,7.60
2018-02-22T15:25:54.891Z,6.97
2018-02-22T15:28:21.482Z,7.53
2018-02-22T15:30:48.088Z,7.10
2018-02-22T15:33:14.688Z,7.70
2018-02-22T15:35:41.288Z,7.63
2018-02-22T15:38:07.899Z,8.00
2018-02-22T15:40:34.510Z,7.30
2018-02-22T15:43:01.102Z,7.57
2018-02-22T15:45:27.699Z,7.13
2018-02-22T15:47:54.291Z,7.23
2018-02-22T15:50:20.887Z,7.27
2018-02-22T15:52:47.509Z,7.30
2018-02-22T15:55:14.096Z,7.47
2018-02-22T15:57:40.721Z,7.00
2018-02-22T16:00:07.318Z,7.00
2018-02-22T16:02:33.912Z,7.23
2018-02-22T16:05:00.499Z,6.37
2018-02-22T16:07:27.099Z,6.70
2018-02-22T16:09:53.687Z,6.30
2018-02-22T16:12:20.280Z,6.67
2018-02-22T16:14:46.879Z,5.83
2018-02-22T16:17:13.476Z,6.30
2018-02-22T16:19:40.068Z,6.10
2018-02-22T16:22:06.678Z,6.03
2018-02-22T16:24:33.264Z,6.83
2018-02-22T16:26:59.852Z,6.10
2018-02-22T16:29:26.452Z,6.80
2018-02-22T16:31:53.044Z,6.80
2018-02-22T16:34:19.651Z,6.70
2018-02-22T16:36:46.268Z,6.90
2018-02-22T16:39:12.857Z,6.40
2018-02-22T16:41:39.453Z,6.60
2018-02-22T16:44:06.061Z,6.43
2018-02-22T16:46:32.652Z,6.70
2018-02-22T16:48:59.303Z,6.77
2018-02-22T16:51:25.942Z,6.97
2018-02-22T16:53:52.528Z,6.50
2018-02-22T16:56:19.123Z,7.17
2018-02-22T16:58:45.736Z,6.97
2018-02-22T17:01:12.322Z,6.20
2018-02-22T17:03:38.970Z,6.80
2018-02-22T17:06:05.600Z,6.77
2018-02-22T17:08:32.197Z,6.67
2018-02-22T17:10:58.785Z,6.57
2018-02-22T17:13:25.404Z,6.27
2018-02-22T17:15:51.996Z,6.53
2018-02-22T17:18:18.588Z,7.30
2018-02-22T17:20:45.216Z,7.13
2018-02-22T17:23:11.840Z,7.07
2018-02-22T17:25:38.044Z,7.13
2018-02-22T17:28:10.492Z,6.63
2018-02-22T17:30:42.983Z,6.17
2018-02-22T17:33:09.582Z,6.37
2018-02-22T17:35:41.877Z,6.70
2018-02-22T17:38:08.473Z,7.17
2018-02-22T17:40:35.982Z,6.53
2018-02-22T17:43:02.591Z,6.90
2018-02-22T17:45:29.208Z,6.47
2018-02-22T17:47:55.871Z,7.30
2018-02-22T17:50:22.456Z,6.40
2018-02-22T17:52:49.074Z,6.47
2018-02-22T17:55:15.672Z,5.90
2018-02-22T17:57:42.272Z,10.23
2018-02-22T18:00:08.874Z,6.63
2018-02-22T18:02:35.516Z,7.33
2018-02-22T18:05:02.100Z,7.20
2018-02-22T18:07:28.723Z,6.87
2018-02-22T18:09:55.319Z,7.13
2018-02-22T18:12:21.924Z,6.87
2018-02-22T18:14:48.519Z,7.37
2018-02-22T18:17:15.126Z,6.93
2018-02-22T18:19:41.716Z,6.60
2018-02-22T18:22:08.323Z,7.13
2018-02-22T18:24:34.917Z,6.17
2018-02-22T18:27:01.517Z,6.60
2018-02-22T18:29:28.128Z,6.53
2018-02-22T18:31:54.719Z,6.10
2018-02-22T18:34:21.311Z,6.20
2018-02-22T18:36:47.922Z,6.30
2018-02-22T18:39:16.414Z,6.47
2018-02-22T18:41:48.868Z,6.30
2018-02-22T18:44:21.152Z,6.53
2018-02-22T18:46:47.744Z,6.07
2018-02-22T18:49:14.366Z,6.17
2018-02-22T18:51:40.964Z,6.00
2018-02-22T18:54:07.556Z,5.73
2018-02-22T18:56:34.171Z,7.83
2018-02-22T18:59:00.763Z,6.30
2018-02-22T19:01:27.347Z,5.57
2018-02-22T19:03:53.962Z,6.50
2018-02-22T19:06:20.589Z,6.80
2018-02-22T19:08:47.179Z,6.10
2018-02-22T19:11:13.788Z,7.20
2018-02-22T19:13:40.379Z,6.20
2018-02-22T19:16:06.968Z,6.03
2018-02-22T19:18:33.576Z,5.90
2018-02-22T19:21:00.174Z,6.40
2018-02-22T19:23:26.760Z,5.60
2018-02-22T19:25:53.412Z,5.67
2018-02-22T19:28:19.959Z,6.00
2018-02-22T19:30:46.552Z,5.60
2018-02-22T19:33:13.167Z,5.97
2018-02-22T19:35:39.784Z,5.80
2018-02-22T19:38:06.383Z,6.60
2018-02-22T19:40:32.985Z,6.50
2018-02-22T19:42:59.575Z,6.23
2018-02-22T19:45:26.163Z,5.63
2018-02-22T19:47:52.767Z,6.17
2018-02-22T19:50:19.367Z,6.57
2018-02-22T19:52:45.961Z,7.20
2018-02-22T19:55:12.578Z,7.50
2018-02-22T19:57:39.172Z,8.33
2018-02-22T20:00:05.766Z,6.97
2018-02-22T20:02:32.371Z,6.13
2018-02-22T20:04:58.967Z,6.30
2018-02-22T20:07:25.556Z,6.00
2018-02-22T20:09:52.172Z,6.53
2018-02-22T20:12:18.764Z,6.93
2018-02-22T20:14:45.343Z,6.30
2018-02-22T20:17:11.968Z,6.90
2018-02-22T20:19:38.561Z,5.80
2018-02-22T20:22:05.147Z,6.70
2018-02-22T20:24:31.759Z,6.50
2018-02-22T20:26:58.355Z,6.47
2018-02-22T20:29:24.959Z,5.90
2018-02-22T20:31:51.586Z,6.23
2018-02-22T20:34:18.164Z,6.23
2018-02-22T20:36:44.760Z,6.83
2018-02-22T20:39:11.375Z,6.67
2018-02-22T20:41:38.911Z,6.70
2018-02-22T20:44:05.525Z,7.40
2018-02-22T20:46:32.136Z,7.23
2018-02-22T20:48:58.728Z,7.20
2018-02-22T20:51:25.319Z,8.37
2018-02-22T20:53:51.940Z,8.53
2018-02-22T20:56:18.548Z,8.60
2018-02-22T20:58:45.131Z,8.33
2018-02-22T21:01:11.740Z,7.97
2018-02-22T21:03:40.981Z,7.80
2018-02-22T21:06:07.576Z,7.40
2018-02-22T21:08:34.192Z,7.40
2018-02-22T21:11:00.812Z,7.20
2018-02-22T21:13:27.408Z,7.23
2018-02-22T21:15:54.034Z,8.00
2018-02-22T21:18:20.624Z,8.00
2018-02-22T21:20:47.224Z,7.80
2018-02-22T21:23:13.960Z,7.37
2018-02-22T21:25:40.542Z,8.43
2018-02-22T21:28:07.157Z,7.23
2018-02-22T21:30:33.760Z,7.60
2018-02-22T21:33:00.428Z,7.50
2018-02-22T21:35:27.028Z,7.53
2018-02-22T21:37:55.300Z,8.23
2018-02-22T21:40:21.937Z,8.40
2018-02-22T21:42:48.536Z,9.37
2018-02-22T21:45:15.246Z,8.20
2018-02-22T21:47:41.828Z,8.80
2018-02-22T21:50:08.420Z,8.83
2018-02-22T21:52:35.028Z,9.67
2018-02-22T21:55:01.623Z,9.30
2018-02-22T21:57:28.230Z,8.83
2018-02-22T21:59:54.827Z,8.37
2018-02-22T22:02:21.419Z,8.43
2018-02-22T22:04:48.027Z,7.73
2018-02-22T22:07:14.644Z,7.90
2018-02-22T22:09:41.242Z,7.60
2018-02-22T22:12:07.835Z,7.13
2018-02-22T22:14:34.449Z,8.53
2018-02-22T22:17:01.043Z,7.90
2018-02-22T22:19:27.632Z,7.20
2018-02-22T22:21:54.241Z,7.70
2018-02-22T22:24:20.834Z,7.10
2018-02-22T22:26:47.419Z,6.50
2018-02-22T22:29:14.036Z,7.43
2018-02-22T22:31:40.624Z,7.20
2018-02-22T22:34:07.218Z,6.83
2018-02-22T22:36:33.824Z,7.47
2018-02-22T22:39:00.416Z,7.10
2018-02-22T22:41:27.028Z,7.00
2018-02-22T22:43:53.659Z,7.73
2018-02-22T22:46:20.263Z,6.73
2018-02-22T22:48:46.852Z,7.60
2018-02-22T22:51:13.468Z,7.50
2018-02-22T22:53:40.062Z,7.57
2018-02-22T22:56:06.647Z,7.10
2018-02-22T22:58:33.259Z,6.97
2018-02-22T23:00:59.877Z,7.10
2018-02-22T23:03:26.451Z,6.97
2018-02-22T23:05:53.056Z,6.87
2018-02-22T23:08:19.642Z,6.70
2018-02-22T23:10:46.235Z,7.03
2018-02-22T23:13:12.849Z,6.30
2018-02-22T23:15:39.452Z,6.77
2018-02-22T23:18:06.044Z,6.00
2018-02-22T23:20:32.642Z,5.90
2018-02-22T23:22:59.232Z,6.40
2018-02-22T23:25:25.819Z,6.00
2018-02-22T23:27:52.447Z,6.10
2018-02-22T23:30:19.069Z,6.27
2018-02-22T23:32:45.659Z,6.20
2018-02-22T23:35:12.275Z,6.20
2018-02-22T23:37:38.864Z,6.37
2018-02-22T23:40:23.288Z,7.00
2018-02-22T23:42:49.897Z,6.20
2018-02-22T23:45:16.492Z,7.10
2018-02-22T23:47:43.099Z,6.33
2018-02-22T23:50:09.699Z,6.73
2018-02-22T23:52:36.295Z,6.90
2018-02-22T23:55:02.912Z,6.37
2018-02-22T23:57:29.511Z,6.63
2018-02-22T23:59:56.096Z,6.80
